createdAt,value
2018-05-06T00:02:09.851Z,102554.28
2018-05-06T00:04:35.579Z,102551.20
2018-05-06T00:07:01.320Z,102548.05
2018-05-06T00:09:27.065Z,102552.48
2018-05-06T00:11:52.807Z,102553.34
2018-05-06T00:14:18.548Z,102553.73
2018-05-06T00:16:44.288Z,102556.36
2018-05-06T00:19:10.029Z,102554.48
2018-05-06T00:21:35.772Z,102552.73
2018-05-06T00:24:01.516Z,102550.84
2018-05-06T00:26:27.285Z,102550.82
2018-05-06T00:28:53.043Z,102552.11
2018-05-06T00:31:18.785Z,102541.96
2018-05-06T00:33:44.536Z,102541.50
2018-05-06T00:36:10.277Z,102546.41
2018-05-06T00:38:36.016Z,102539.75
2018-05-06T00:41:01.774Z,102541.61
2018-05-06T00:43:27.512Z,102545.10
2018-05-06T00:45:53.269Z,102548.64
2018-05-06T00:48:19.011Z,102543.68
2018-05-06T00:50:44.741Z,102544.91
2018-05-06T00:53:10.476Z,102541.77
2018-05-06T00:55:36.200Z,102537.42
2018-05-06T00:58:01.939Z,102538.73
2018-05-06T01:00:27.672Z,102534.73
2018-05-06T01:02:53.413Z,102536.90
2018-05-06T01:05:19.168Z,102537.72
2018-05-06T01:07:44.913Z,102536.83
2018-05-06T01:10:10.643Z,102529.78
2018-05-06T01:12:36.378Z,102531.66
2018-05-06T01:15:02.122Z,102535.97
2018-05-06T01:17:27.863Z,102528.88
2018-05-06T01:19:53.597Z,102530.11
2018-05-06T01:22:19.352Z,102530.53
2018-05-06T01:24:45.077Z,102530.94
2018-05-06T01:27:10.803Z,102528.21
2018-05-06T01:29:36.556Z,102533.57
2018-05-06T01:32:02.324Z,102536.22
2018-05-06T01:34:28.073Z,102536.55
2018-05-06T01:36:53.795Z,102533.84
2018-05-06T01:39:19.529Z,102538.75
2018-05-06T01:41:45.273Z,102542.65
2018-05-06T01:44:11.013Z,102540.05
2018-05-06T01:46:36.764Z,102542.14
2018-05-06T01:49:02.527Z,102535.45
2018-05-06T01:51:28.256Z,102539.31
2018-05-06T01:53:53.991Z,102525.60
2018-05-06T01:56:19.729Z,102532.70
2018-05-06T01:58:45.484Z,102533.49
2018-05-06T02:01:11.228Z,102524.72
2018-05-06T02:03:36.972Z,102522.97
2018-05-06T02:06:02.713Z,102521.59
2018-05-06T02:08:28.463Z,102524.63
2018-05-06T02:10:54.192Z,102528.28
2018-05-06T02:13:19.927Z,102527.28
2018-05-06T02:15:45.680Z,102528.03
2018-05-06T02:18:11.434Z,102527.09
2018-05-06T02:20:37.176Z,102528.42
2018-05-06T02:23:02.921Z,102532.41
2018-05-06T02:25:28.657Z,102529.71
2018-05-06T02:27:54.412Z,102530.23
2018-05-06T02:30:20.144Z,102526.73
2018-05-06T02:32:45.905Z,102529.25
2018-05-06T02:35:11.640Z,102526.98
2018-05-06T02:37:37.397Z,102526.95
2018-05-06T02:40:03.132Z,102534.38
2018-05-06T02:42:28.873Z,102534.92
2018-05-06T02:44:54.609Z,102530.44
2018-05-06T02:47:20.348Z,102535.72
2018-05-06T02:49:46.089Z,102540.77
2018-05-06T02:52:11.841Z,102544.05
2018-05-06T02:54:37.603Z,102547.99
2018-05-06T02:57:03.343Z,102547.99
2018-05-06T02:59:29.107Z,102553.95
2018-05-06T03:01:54.858Z,102557.90
2018-05-06T03:04:20.605Z,102550.27
2018-05-06T03:06:46.340Z,102554.17
2018-05-06T03:09:12.080Z,102555.69
2018-05-06T03:11:37.817Z,102555.77
2018-05-06T03:14:03.580Z,102554.08
2018-05-06T03:16:29.344Z,102549.73
2018-05-06T03:18:55.110Z,102549.00
2018-05-06T03:21:20.844Z,102551.49
2018-05-06T03:23:46.592Z,102550.58
2018-05-06T03:26:12.332Z,102554.05
2018-05-06T03:28:38.072Z,102560.04
2018-05-06T03:31:03.796Z,102557.01
2018-05-06T03:33:29.532Z,102551.74
2018-05-06T03:35:55.286Z,102555.59
2018-05-06T03:38:21.028Z,102545.99
2018-05-06T03:40:46.758Z,102546.96
2018-05-06T03:43:12.506Z,102550.85
2018-05-06T03:45:38.239Z,102552.56
2018-05-06T03:48:03.981Z,102556.63
2018-05-06T03:50:29.723Z,102556.59
2018-05-06T03:52:55.455Z,102556.39
2018-05-06T03:55:21.197Z,102561.97
2018-05-06T03:57:59.243Z,102564.23
2018-05-06T04:00:37.233Z,102562.49
2018-05-06T04:03:02.972Z,102561.67
2018-05-06T04:05:28.724Z,102563.88
2018-05-06T04:07:54.469Z,102571.38
2018-05-06T04:10:20.211Z,102571.06
2018-05-06T04:12:45.944Z,102576.00
2018-05-06T04:15:12.482Z,102572.27
2018-05-06T04:17:38.221Z,102574.92
2018-05-06T04:20:03.981Z,102581.66
2018-05-06T04:22:29.733Z,102570.35
2018-05-06T04:24:55.472Z,102568.59
2018-05-06T04:27:21.212Z,102569.88
2018-05-06T04:29:46.954Z,102570.08
2018-05-06T04:32:12.680Z,102568.48
2018-05-06T04:34:38.412Z,102568.27
2018-05-06T04:37:04.159Z,102565.48
2018-05-06T04:39:29.907Z,102575.70
2018-05-06T04:41:55.641Z,102566.78
2018-05-06T04:44:21.446Z,102565.44
2018-05-06T04:46:47.144Z,102571.78
2018-05-06T04:49:12.889Z,102572.45
2018-05-06T04:51:38.624Z,102575.61
2018-05-06T04:54:04.375Z,102575.52
2018-05-06T04:56:30.116Z,102578.58
2018-05-06T04:58:55.863Z,102585.67
2018-05-06T05:01:21.619Z,102580.70
2018-05-06T05:03:47.350Z,102582.62
2018-05-06T05:06:13.096Z,102584.95
2018-05-06T05:08:38.876Z,102579.86
2018-05-06T05:11:04.640Z,102583.45
2018-05-06T05:13:30.384Z,102591.45
2018-05-06T05:15:56.136Z,102595.50
2018-05-06T05:18:21.876Z,102597.69
2018-05-06T05:20:47.681Z,102601.94
2018-05-06T05:23:13.387Z,102603.80
2018-05-06T05:25:39.148Z,102611.30
2018-05-06T05:28:04.896Z,102611.34
2018-05-06T05:30:30.639Z,102613.09
2018-05-06T05:32:56.384Z,102613.31
2018-05-06T05:35:22.133Z,102617.67
2018-05-06T05:37:47.880Z,102619.48
2018-05-06T05:40:13.624Z,102613.80
2018-05-06T05:42:39.360Z,102617.36
2018-05-06T05:45:05.120Z,102616.03
2018-05-06T05:47:30.855Z,102620.00
2018-05-06T05:49:56.627Z,102612.49
2018-05-06T05:52:22.371Z,102608.05
2018-05-06T05:54:48.113Z,102607.55
2018-05-06T05:57:13.873Z,102610.59
2018-05-06T05:59:39.634Z,102614.91
2018-05-06T06:02:05.376Z,102621.42
2018-05-06T06:04:31.125Z,102619.77
2018-05-06T06:06:56.889Z,102623.28
2018-05-06T06:09:22.624Z,102622.38
2018-05-06T06:11:48.367Z,102622.79
2018-05-06T06:14:14.116Z,102628.79
2018-05-06T06:16:39.861Z,102628.09
2018-05-06T06:19:05.597Z,102631.59
2018-05-06T06:21:31.341Z,102623.20
2018-05-06T06:23:57.076Z,102624.51
2018-05-06T06:26:22.829Z,102620.51
2018-05-06T06:28:48.572Z,102623.89
2018-05-06T06:31:14.311Z,102621.88
2018-05-06T06:33:40.053Z,102620.13
2018-05-06T06:36:05.807Z,102616.74
2018-05-06T06:38:31.538Z,102611.51
2018-05-06T06:40:57.271Z,102611.84
2018-05-06T06:43:22.992Z,102607.62
2018-05-06T06:45:48.727Z,102612.48
2018-05-06T06:48:14.461Z,102604.03
2018-05-06T06:50:40.212Z,102602.45
2018-05-06T06:53:05.959Z,102594.33
2018-05-06T06:55:31.706Z,102590.09
2018-05-06T06:57:57.444Z,102597.98
2018-05-06T07:00:23.195Z,102598.45
2018-05-06T07:02:48.933Z,102594.14
2018-05-06T07:05:14.680Z,102601.06
2018-05-06T07:07:40.407Z,102607.89
2018-05-06T07:10:06.159Z,102614.34
2018-05-06T07:12:31.906Z,102616.23
2018-05-06T07:14:57.640Z,102613.44
2018-05-06T07:17:23.381Z,102620.62
2018-05-06T07:19:49.117Z,102623.69
2018-05-06T07:22:14.868Z,102628.03
2018-05-06T07:24:40.678Z,102621.80
2018-05-06T07:27:06.356Z,102619.66
2018-05-06T07:29:32.104Z,102616.50
2018-05-06T07:31:57.847Z,102610.98
2018-05-06T07:34:23.580Z,102599.11
2018-05-06T07:36:49.333Z,102599.30
2018-05-06T07:39:15.068Z,102601.03
2018-05-06T07:41:40.799Z,102607.77
2018-05-06T07:44:06.538Z,102599.05
2018-05-06T07:46:32.289Z,102597.56
2018-05-06T07:48:58.097Z,102598.03
2018-05-06T07:51:23.763Z,102600.38
2018-05-06T07:53:49.491Z,102602.41
2018-05-06T07:56:15.234Z,102602.74
2018-05-06T07:58:40.977Z,102599.97
2018-05-06T08:01:06.740Z,102598.27
2018-05-06T08:03:32.465Z,102596.98
2018-05-06T08:05:58.209Z,102593.61
2018-05-06T08:08:23.937Z,102590.44
2018-05-06T08:10:49.705Z,102596.11
2018-05-06T08:13:15.432Z,102592.92
2018-05-06T08:15:41.185Z,102594.64
2018-05-06T08:18:06.920Z,102590.05
2018-05-06T08:20:32.653Z,102595.09
2018-05-06T08:22:58.391Z,102591.77
2018-05-06T08:25:24.125Z,102588.83
2018-05-06T08:27:49.873Z,102588.09
2018-05-06T08:30:15.615Z,102589.39
2018-05-06T08:32:41.349Z,102585.08
2018-05-06T08:35:07.074Z,102583.83
2018-05-06T08:37:32.900Z,102582.95
2018-05-06T08:39:58.565Z,102589.72
2018-05-06T08:42:24.304Z,102592.66
2018-05-06T08:44:50.025Z,102590.21
2018-05-06T08:47:15.761Z,102595.78
2018-05-06T08:49:41.504Z,102585.08
2018-05-06T08:52:07.248Z,102594.38
2018-05-06T08:54:32.979Z,102585.77
2018-05-06T08:56:58.724Z,102592.32
2018-05-06T08:59:24.480Z,102591.95
2018-05-06T09:01:50.240Z,102592.06
2018-05-06T09:04:15.976Z,102592.72
2018-05-06T09:06:41.731Z,102594.55
2018-05-06T09:09:07.457Z,102586.71
2018-05-06T09:11:33.203Z,102588.77
2018-05-06T09:13:58.948Z,102590.77
2018-05-06T09:16:24.704Z,102591.29
2018-05-06T09:18:50.444Z,102585.14
2018-05-06T09:21:16.220Z,102583.33
2018-05-06T09:23:41.961Z,102587.97
2018-05-06T09:26:07.725Z,102583.94
2018-05-06T09:28:33.475Z,102581.70
2018-05-06T09:30:59.268Z,102574.75
2018-05-06T09:33:25.009Z,102579.37
2018-05-06T09:35:50.751Z,102578.65
2018-05-06T09:38:16.519Z,102579.33
2018-05-06T09:40:42.261Z,102586.14
2018-05-06T09:43:08.016Z,102587.78
2018-05-06T09:45:33.761Z,102580.77
2018-05-06T09:47:59.503Z,102574.32
2018-05-06T09:50:25.254Z,102575.44
2018-05-06T09:52:50.995Z,102571.75
2018-05-06T09:55:16.768Z,102569.19
2018-05-06T09:57:42.508Z,102564.63
2018-05-06T10:00:08.273Z,102567.90
2018-05-06T10:02:34.036Z,102566.73
2018-05-06T10:04:59.791Z,102569.30
2018-05-06T10:07:25.547Z,102567.65
2018-05-06T10:09:51.288Z,102569.19
2018-05-06T10:12:17.044Z,102566.98
2018-05-06T10:14:42.795Z,102563.59
2018-05-06T10:17:08.552Z,102559.91
2018-05-06T10:19:34.317Z,102558.45
2018-05-06T10:22:00.069Z,102559.41
2018-05-06T10:24:25.822Z,102558.83
2018-05-06T10:26:51.579Z,102553.17
2018-05-06T10:29:17.323Z,102552.61
2018-05-06T10:31:43.067Z,102554.08
2018-05-06T10:34:08.808Z,102543.78
2018-05-06T10:36:34.556Z,102546.64
2018-05-06T10:39:00.303Z,102545.23
2018-05-06T10:41:26.057Z,102543.65
2018-05-06T10:43:51.816Z,102539.47
2018-05-06T10:46:17.558Z,102536.38
2018-05-06T10:48:43.326Z,102533.19
2018-05-06T10:51:09.067Z,102527.42
2018-05-06T10:53:34.828Z,102523.61
2018-05-06T10:56:00.590Z,102516.03
2018-05-06T10:58:26.331Z,102519.28
2018-05-06T11:00:52.085Z,102523.45
2018-05-06T11:03:17.836Z,102516.16
2018-05-06T11:05:43.584Z,102517.61
2018-05-06T11:08:09.333Z,102511.47
2018-05-06T11:10:35.084Z,102512.86
2018-05-06T11:13:00.831Z,102507.24
2018-05-06T11:15:26.582Z,102508.43
2018-05-06T11:17:52.417Z,102507.48
2018-05-06T11:20:18.081Z,102507.92
2018-05-06T11:22:43.831Z,102505.70
2018-05-06T11:25:09.572Z,102507.27
2018-05-06T11:27:35.341Z,102498.00
2018-05-06T11:30:01.096Z,102505.05
2018-05-06T11:32:26.848Z,102500.54
2018-05-06T11:34:52.591Z,102502.44
2018-05-06T11:37:18.332Z,102495.72
2018-05-06T11:39:44.089Z,102492.80
2018-05-06T11:42:09.828Z,102493.89
2018-05-06T11:44:35.575Z,102484.49
2018-05-06T11:47:01.324Z,102490.14
2018-05-06T11:49:27.101Z,102486.41
2018-05-06T11:51:52.839Z,102486.27
2018-05-06T11:54:18.589Z,102484.95
2018-05-06T11:56:44.332Z,102486.31
2018-05-06T11:59:10.090Z,102480.45
2018-05-06T12:01:35.834Z,102480.17
2018-05-06T12:04:01.568Z,102471.23
2018-05-06T12:06:27.308Z,102470.52
2018-05-06T12:08:53.064Z,102467.99
2018-05-06T12:11:18.800Z,102466.89
2018-05-06T12:13:44.555Z,102460.86
2018-05-06T12:16:10.299Z,102460.27
2018-05-06T12:18:36.052Z,102456.77
2018-05-06T12:21:01.818Z,102453.26
2018-05-06T12:23:27.584Z,102450.77
2018-05-06T12:25:53.323Z,102451.47
2018-05-06T12:28:19.078Z,102443.91
2018-05-06T12:30:44.816Z,102444.59
2018-05-06T12:33:10.577Z,102440.50
2018-05-06T12:35:36.304Z,102441.55
2018-05-06T12:38:02.043Z,102434.72
2018-05-06T12:40:27.780Z,102442.56
2018-05-06T12:42:53.528Z,102432.95
2018-05-06T12:45:19.289Z,102422.31
2018-05-06T12:47:45.028Z,102429.37
2018-05-06T12:50:10.772Z,102428.31
2018-05-06T12:52:36.524Z,102426.16
2018-05-06T12:55:02.279Z,102431.16
2018-05-06T12:57:28.021Z,102425.74
2018-05-06T12:59:53.777Z,102421.95
2018-05-06T13:02:19.614Z,102413.79
2018-05-06T13:04:45.291Z,102418.00
2018-05-06T13:07:11.037Z,102407.31
2018-05-06T13:09:36.768Z,102407.18
2018-05-06T13:12:02.503Z,102409.72
2018-05-06T13:14:28.261Z,102402.50
2018-05-06T13:16:54.000Z,102401.86
2018-05-06T13:19:19.747Z,102407.84
2018-05-06T13:21:45.487Z,102402.87
2018-05-06T13:24:11.299Z,102403.30
2018-05-06T13:26:36.997Z,102394.95
2018-05-06T13:29:02.752Z,102394.10
2018-05-06T13:31:28.495Z,102392.49
2018-05-06T13:33:54.254Z,102388.82
2018-05-06T13:36:19.983Z,102383.32
2018-05-06T13:38:45.727Z,102379.16
2018-05-06T13:41:11.477Z,102379.41
2018-05-06T13:43:37.229Z,102372.37
2018-05-06T13:46:02.973Z,102368.87
2018-05-06T13:48:28.753Z,102366.28
2018-05-06T13:50:54.479Z,102363.09
2018-05-06T13:53:20.220Z,102370.14
2018-05-06T13:55:45.955Z,102360.49
2018-05-06T13:58:11.723Z,102355.69
2018-05-06T14:00:37.477Z,102354.39
2018-05-06T14:03:03.221Z,102360.45
2018-05-06T14:05:28.986Z,102358.20
2018-05-06T14:07:54.727Z,102357.23
2018-05-06T14:10:20.476Z,102354.78
2018-05-06T14:12:46.220Z,102359.50
2018-05-06T14:15:11.977Z,102350.90
2018-05-06T14:17:37.726Z,102349.50
2018-05-06T14:20:03.484Z,102351.13
2018-05-06T14:22:29.215Z,102349.95
2018-05-06T14:24:54.961Z,102343.43
2018-05-06T14:27:20.692Z,102349.92
2018-05-06T14:29:46.439Z,102353.44
2018-05-06T14:32:12.179Z,102346.66
2018-05-06T14:34:37.925Z,102343.80
2018-05-06T14:37:03.685Z,102341.03
2018-05-06T14:39:29.518Z,102337.92
2018-05-06T14:41:55.181Z,102331.53
2018-05-06T14:44:20.948Z,102337.72
2018-05-06T14:46:59.096Z,102328.69
2018-05-06T14:49:24.854Z,102326.10
2018-05-06T14:51:50.595Z,102322.88
2018-05-06T14:54:16.347Z,102317.89
2018-05-06T14:56:42.162Z,102316.91
2018-05-06T14:59:07.909Z,102319.47
2018-05-06T15:01:33.653Z,102319.80
2018-05-06T15:03:59.405Z,102325.49
2018-05-06T15:06:25.152Z,102321.98
2018-05-06T15:08:50.889Z,102321.06
2018-05-06T15:11:16.633Z,102322.52
2018-05-06T15:13:42.380Z,102314.37
2018-05-06T15:16:08.124Z,102318.64
2018-05-06T15:18:33.861Z,102308.13
2018-05-06T15:20:59.618Z,102303.99
2018-05-06T15:23:25.365Z,102309.86
2018-05-06T15:25:51.113Z,102303.95
2018-05-06T15:28:16.852Z,102298.62
2018-05-06T15:30:42.621Z,102298.41
2018-05-06T15:33:08.371Z,102289.53
2018-05-06T15:35:34.100Z,102289.67
2018-05-06T15:37:59.847Z,102290.91
2018-05-06T15:40:25.587Z,102287.41
2018-05-06T15:42:51.343Z,102285.86
2018-05-06T15:45:17.072Z,102282.63
2018-05-06T15:47:42.819Z,102281.06
2018-05-06T15:50:08.665Z,102284.77
2018-05-06T15:52:34.351Z,102278.08
2018-05-06T15:55:00.077Z,102272.84
2018-05-06T15:57:25.820Z,102281.72
2018-05-06T15:59:51.580Z,102276.47
2018-05-06T16:15:55.411Z,102258.27
2018-05-06T16:18:21.177Z,102257.03
2018-05-06T16:20:46.914Z,102252.60
2018-05-06T16:23:12.669Z,102250.16
2018-05-06T16:25:38.510Z,102253.61
2018-05-06T16:28:04.173Z,102253.06
2018-05-06T16:30:29.916Z,102257.89
2018-05-06T16:32:55.683Z,102256.67
2018-05-06T16:35:21.442Z,102257.66
2018-05-06T16:37:47.225Z,102258.27
2018-05-06T16:40:12.984Z,102257.95
2018-05-06T16:42:38.744Z,102259.55
2018-05-06T16:45:04.504Z,102254.66
2018-05-06T16:47:30.259Z,102253.27
2018-05-06T16:49:56.011Z,102253.84
2018-05-06T16:52:21.748Z,102245.55
2018-05-06T16:54:47.501Z,102252.11
2018-05-06T16:57:13.233Z,102241.60
2018-05-06T16:59:38.996Z,102255.81
2018-05-06T17:02:04.724Z,102248.83
2018-05-06T17:04:30.821Z,102249.36
2018-05-06T17:06:56.797Z,102255.67
2018-05-06T17:09:22.553Z,102251.73
2018-05-06T17:11:48.299Z,102248.02
2018-05-06T17:14:14.040Z,102251.72
2018-05-06T17:16:39.780Z,102251.42
2018-05-06T17:19:05.539Z,102248.27
2018-05-06T17:21:31.276Z,102243.56
2018-05-06T17:23:57.036Z,102247.37
2018-05-06T17:26:22.767Z,102246.09
2018-05-06T17:28:48.512Z,102245.38
2018-05-06T17:31:14.272Z,102248.48
2018-05-06T17:33:40.007Z,102243.65
2018-05-06T17:36:05.748Z,102244.03
2018-05-06T17:38:31.499Z,102244.24
2018-05-06T17:40:57.249Z,102248.26
2018-05-06T17:43:22.981Z,102243.03
2018-05-06T17:45:48.740Z,102241.97
2018-05-06T17:48:14.482Z,102248.87
2018-05-06T17:50:40.225Z,102241.30
2018-05-06T17:53:05.956Z,102246.30
2018-05-06T17:55:31.736Z,102242.03
2018-05-06T17:57:57.465Z,102237.29
2018-05-06T18:00:23.260Z,102247.09
2018-05-06T18:02:48.995Z,102242.20
2018-05-06T18:05:14.754Z,102238.30
2018-05-06T18:07:40.484Z,102247.40
2018-05-06T18:10:06.237Z,102240.73
2018-05-06T18:12:31.983Z,102242.98
2018-05-06T18:14:57.751Z,102238.81
2018-05-06T18:17:23.488Z,102236.59
2018-05-06T18:19:49.223Z,102235.86
2018-05-06T18:22:14.977Z,102250.05
2018-05-06T18:24:40.734Z,102245.61
2018-05-06T18:27:06.460Z,102239.75
2018-05-06T18:29:32.187Z,102243.98
2018-05-06T18:31:57.942Z,102245.59
2018-05-06T18:34:23.677Z,102247.69
2018-05-06T18:36:49.428Z,102248.01
2018-05-06T18:39:15.159Z,102250.22
2018-05-06T18:41:40.912Z,102252.70
2018-05-06T18:44:06.640Z,102249.75
2018-05-06T18:46:32.385Z,102250.06
2018-05-06T18:48:58.103Z,102251.54
2018-05-06T18:51:23.869Z,102249.11
2018-05-06T18:53:49.603Z,102251.07
2018-05-06T18:56:15.342Z,102258.09
2018-05-06T18:58:41.095Z,102256.18
2018-05-06T19:01:06.839Z,102257.70
2018-05-06T19:03:32.577Z,102257.61
2018-05-06T19:05:58.316Z,102253.55
2018-05-06T19:08:24.085Z,102259.25
2018-05-06T19:10:49.811Z,102265.72
2018-05-06T19:13:15.555Z,102261.09
2018-05-06T19:15:41.283Z,102266.91
2018-05-06T19:18:07.033Z,102267.10
2018-05-06T19:20:32.768Z,102263.80
2018-05-06T19:22:58.516Z,102272.12
2018-05-06T19:25:24.258Z,102266.95
2018-05-06T19:27:50.003Z,102269.80
2018-05-06T19:30:15.740Z,102273.93
2018-05-06T19:32:41.521Z,102271.66
2018-05-06T19:35:07.249Z,102272.59
2018-05-06T19:37:32.984Z,102265.92
2018-05-06T19:39:58.733Z,102269.20
2018-05-06T19:42:24.502Z,102281.28
2018-05-06T19:44:50.213Z,102279.17
2018-05-06T19:47:15.941Z,102277.02
2018-05-06T19:49:41.700Z,102279.42
2018-05-06T19:52:07.440Z,102284.28
2018-05-06T19:54:33.184Z,102283.58
2018-05-06T19:56:58.920Z,102281.10
2018-05-06T19:59:24.681Z,102279.21
2018-05-06T20:01:50.425Z,102276.29
2018-05-06T20:04:16.172Z,102270.73
2018-05-06T20:06:41.963Z,102278.20
2018-05-06T20:09:07.735Z,102280.90
2018-05-06T20:11:33.477Z,102274.84
2018-05-06T20:13:59.268Z,102280.20
2018-05-06T20:16:25.041Z,102274.28
2018-05-06T20:18:50.776Z,102273.75
2018-05-06T20:21:16.517Z,102266.82
2018-05-06T20:23:42.245Z,102270.78
2018-05-06T20:26:08.023Z,102268.73
2018-05-06T20:28:33.767Z,102267.06
2018-05-06T20:30:59.508Z,102260.22
2018-05-06T20:33:25.240Z,102259.02
2018-05-06T20:35:50.984Z,102261.25
2018-05-06T20:38:16.745Z,102259.39
2018-05-06T20:40:42.480Z,102254.22
2018-05-06T20:43:08.207Z,102257.55
2018-05-06T20:45:33.962Z,102252.85
2018-05-06T20:48:00.117Z,102253.87
2018-05-06T20:50:25.929Z,102254.81
2018-05-06T20:52:51.664Z,102250.00
2018-05-06T20:55:17.435Z,102246.00
2018-05-06T20:57:43.164Z,102247.23
2018-05-06T21:00:08.960Z,102246.40
2018-05-06T21:02:34.708Z,102251.19
2018-05-06T21:05:00.432Z,102245.58
2018-05-06T21:07:26.176Z,102244.80
2018-05-06T21:09:51.924Z,102239.03
2018-05-06T21:12:17.681Z,102240.13
2018-05-06T21:14:43.512Z,102244.73
2018-05-06T21:17:09.245Z,102242.16
2018-05-06T21:19:34.991Z,102243.81
2018-05-06T21:22:00.732Z,102246.45
2018-05-06T21:24:26.624Z,102247.39
2018-05-06T21:26:52.424Z,102246.48
2018-05-06T21:29:18.168Z,102243.03
2018-05-06T21:31:43.916Z,102240.96
2018-05-06T21:34:09.636Z,102242.30
2018-05-06T21:36:35.382Z,102241.91
2018-05-06T21:39:01.235Z,102244.23
2018-05-06T21:41:27.240Z,102246.63
2018-05-06T21:43:54.257Z,102240.55
2018-05-06T21:46:20.021Z,102244.55
2018-05-06T21:48:45.756Z,102241.64
2018-05-06T21:51:12.473Z,102239.84
2018-05-06T21:53:38.229Z,102239.11
2018-05-06T21:56:04.667Z,102229.63
2018-05-06T21:58:30.428Z,102230.11
2018-05-06T22:00:56.175Z,102238.95
2018-05-06T22:03:21.921Z,102233.19
2018-05-06T22:05:47.653Z,102232.77
2018-05-06T22:08:13.388Z,102228.97
2018-05-06T22:10:39.149Z,102236.55
2018-05-06T22:13:04.895Z,102238.92
2018-05-06T22:15:30.625Z,102240.30
2018-05-06T22:17:56.371Z,102238.31
2018-05-06T22:20:22.091Z,102233.33
2018-05-06T22:22:47.825Z,102240.61
2018-05-06T22:25:13.553Z,102237.23
2018-05-06T22:27:39.305Z,102239.15
2018-05-06T22:30:05.043Z,102240.31
2018-05-06T22:32:30.783Z,102241.68
2018-05-06T22:34:56.530Z,102241.20
2018-05-06T22:37:22.272Z,102237.84
2018-05-06T22:39:48.009Z,102242.73
2018-05-06T22:42:13.752Z,102240.08
2018-05-06T22:44:39.499Z,102238.78
2018-05-06T22:47:05.227Z,102236.71
2018-05-06T22:49:30.965Z,102231.17
2018-05-06T22:51:56.695Z,102236.50
2018-05-06T22:54:22.436Z,102228.14
2018-05-06T22:56:48.164Z,102230.25
2018-05-06T22:59:13.921Z,102226.33
2018-05-06T23:01:39.660Z,102222.89
2018-05-06T23:04:05.404Z,102225.25
2018-05-06T23:06:31.153Z,102220.70
2018-05-06T23:08:56.920Z,102229.07
2018-05-06T23:11:22.666Z,102233.48
2018-05-06T23:13:48.412Z,102227.81
2018-05-06T23:16:14.247Z,102227.48
2018-05-06T23:18:39.929Z,102225.75
2018-05-06T23:21:05.668Z,102229.86
2018-05-06T23:23:31.396Z,102224.92
2018-05-06T23:25:57.137Z,102235.26
2018-05-06T23:28:22.872Z,102235.69
2018-05-06T23:30:48.672Z,102228.66
2018-05-06T23:33:14.411Z,102226.13
2018-05-06T23:35:40.221Z,102226.50
2018-05-06T23:38:05.906Z,102225.25
2018-05-06T23:40:31.656Z,102226.05
2018-05-06T23:42:57.403Z,102232.28
2018-05-06T23:45:23.147Z,102228.64
2018-05-06T23:47:48.893Z,102235.27
2018-05-06T23:50:14.648Z,102232.73
2018-05-06T23:52:40.388Z,102242.56
2018-05-06T23:55:06.136Z,102233.22
2018-05-06T23:57:31.876Z,102235.89
2018-05-06T23:59:57.661Z,102232.80
